Time;durP1;ratioP1;P1;durP2;ratioP2;P2;SDS_P1;SDS_P2;PMS_P1;PMS_P2;Temp;Humidity;BMP_temperature;BMP_pressure;BME280_temperature;BME280_humidity;BME280_pressure;Samples;Min_cycle;Max_cycle;Signal;HPM_P1;HPM_P2
2022/07/08 00:02:04;;;;;;;6.88;1.70;;;;;;;18.44;35.65;92991.50;5033965;28;20548;-73
2022/07/08 00:04:30;;;;;;;2.72;1.50;;;;;;;18.42;36.26;92999.03;5033693;28;20052;-73
2022/07/08 00:06:55;;;;;;;3.47;1.58;;;;;;;18.38;36.26;92998.88;5016404;28;20278;-73
2022/07/08 00:09:21;;;;;;;3.72;1.70;;;;;;;18.34;36.31;92990.00;4995552;28;20037;-73
2022/07/08 00:11:47;;;;;;;3.10;1.77;;;;;;;18.36;36.61;92995.78;5025933;28;20037;-73
2022/07/08 00:14:13;;;;;;;3.97;1.80;;;;;;;18.36;36.19;92995.00;5015863;28;20389;-73
2022/07/08 00:16:40;;;;;;;2.90;1.60;;;;;;;18.34;36.19;92991.88;5033691;28;20100;-73
2022/07/08 00:19:14;;;;;;;5.38;1.90;;;;;;;18.33;36.73;93000.91;5015941;28;20388;-73
2022/07/08 00:21:43;;;;;;;4.10;1.60;;;;;;;18.29;36.65;92995.50;5015801;28;20037;-73
2022/07/08 00:24:13;;;;;;;3.38;1.55;;;;;;;18.25;37.55;92991.94;5033475;28;20027;-73
2022/07/08 00:26:40;;;;;;;4.70;1.80;;;;;;;18.19;37.66;92987.91;5030730;28;20041;-73
2022/07/08 00:29:06;;;;;;;3.60;1.60;;;;;;;18.12;37.42;92991.06;5033315;28;20037;-73
2022/07/08 00:31:32;;;;;;;3.72;1.75;;;;;;;18.08;38.65;92990.94;5015052;28;20025;-73
2022/07/08 00:33:58;;;;;;;5.68;1.70;;;;;;;18.00;39.63;92989.13;5033037;28;20063;-73
2022/07/08 00:36:24;;;;;;;4.57;1.75;;;;;;;17.94;39.23;92985.09;5033229;28;20033;-73
2022/07/08 00:38:49;;;;;;;6.32;1.60;;;;;;;17.89;39.17;92982.63;5014408;28;20040;-73
2022/07/08 00:41:15;;;;;;;4.38;1.67;;;;;;;17.84;39.22;92980.16;5015339;28;20036;-73
2022/07/08 00:43:44;;;;;;;3.83;1.58;;;;;;;17.80;39.50;92976.56;5014300;28;20376;-73
2022/07/08 00:46:11;;;;;;;6.35;1.50;;;;;;;17.75;39.84;92987.34;5033082;28;20266;-73
2022/07/08 00:48:37;;;;;;;3.53;1.70;;;;;;;17.71;39.69;92983.78;5033026;28;20559;-73
2022/07/08 00:51:08;;;;;;;5.53;1.90;;;;;;;17.67;39.41;92989.72;4998946;28;20060;-73
2022/07/08 00:53:35;;;;;;;5.82;1.70;;;;;;;17.67;39.04;92992.34;5032893;28;20088;-73
2022/07/08 00:56:02;;;;;;;7.38;2.03;;;;;;;17.66;39.04;92990.78;5015171;28;20132;-73
2022/07/08 00:58:29;;;;;;;4.10;1.50;;;;;;;17.66;39.07;92988.16;5014458;28;20065;-73
2022/07/08 01:00:54;;;;;;;5.88;1.70;;;;;;;17.62;39.52;92981.91;5010878;28;20412;-73
2022/07/08 01:03:21;;;;;;;3.10;1.70;;;;;;;17.60;40.02;92981.47;5011605;28;20085;-73
2022/07/08 01:05:47;;;;;;;4.38;1.48;;;;;;;17.55;40.67;92981.66;5012675;28;20548;-73
2022/07/08 01:08:13;;;;;;;4.30;1.70;;;;;;;17.51;40.45;92986.00;5012704;28;20125;-73
2022/07/08 01:10:39;;;;;;;3.88;1.80;;;;;;;17.49;40.02;92977.59;5011548;28;20037;-73
2022/07/08 01:13:06;;;;;;;3.72;1.60;;;;;;;17.47;40.27;92977.16;5012805;28;20080;-73
2022/07/08 01:15:32;;;;;;;2.85;1.60;;;;;;;17.48;39.95;92981.38;5019125;28;20677;-73
2022/07/08 01:17:58;;;;;;;6.03;1.70;;;;;;;17.50;39.51;92976.53;4998317;28;20124;-73
2022/07/08 01:20:24;;;;;;;6.57;1.70;;;;;;;17.51;39.45;92978.06;5032436;28;20029;-73
2022/07/08 01:22:50;;;;;;;3.60;1.52;;;;;;;17.51;39.87;92988.66;5014848;28;20045;-73
2022/07/08 01:25:15;;;;;;;6.00;1.73;;;;;;;17.52;40.04;92977.00;5032122;28;20549;-73
2022/07/08 01:27:41;;;;;;;3.80;1.73;;;;;;;17.52;39.76;92979.63;5032176;28;20033;-73
2022/07/08 01:30:08;;;;;;;2.83;1.50;;;;;;;17.53;39.66;92981.19;5032132;28;20052;-73
2022/07/08 01:32:35;;;;;;;3.03;1.67;;;;;;;17.55;39.23;92983.53;5027996;28;20053;-73
2022/07/08 01:35:03;;;;;;;3.17;1.70;;;;;;;17.55;39.51;92989.59;4998048;28;20495;-73
2022/07/08 01:37:29;;;;;;;2.85;1.52;;;;;;;17.52;39.75;92987.59;4998012;28;20434;-73
2022/07/08 01:39:54;;;;;;;4.57;1.65;;;;;;;17.53;39.76;92989.13;5014330;28;20128;-73
2022/07/08 01:42:20;;;;;;;5.95;1.92;;;;;;;17.54;39.17;92982.75;5012032;28;20033;-73
2022/07/08 01:44:45;;;;;;;4.07;1.65;;;;;;;17.55;39.42;92980.88;5029424;28;20037;-73
2022/07/08 01:47:11;;;;;;;5.32;1.80;;;;;;;17.55;39.28;92986.94;5031021;28;20091;-73
2022/07/08 01:49:36;;;;;;;3.85;1.67;;;;;;;17.54;39.46;92990.69;5014300;28;20084;-73
2022/07/08 01:52:04;;;;;;;3.65;1.65;;;;;;;17.53;39.61;92980.41;5028005;28;20087;-73
2022/07/08 01:54:30;;;;;;;4.40;1.85;;;;;;;17.52;39.33;92979.63;4998036;28;20033;-73
2022/07/08 01:57:13;;;;;;;3.83;1.80;;;;;;;17.54;39.07;92977.47;4997636;28;20610;-73
2022/07/08 01:59:43;;;;;;;2.90;1.67;;;;;;;17.56;39.17;92977.91;5016703;28;20530;-73
2022/07/08 02:02:10;;;;;;;3.53;1.80;;;;;;;17.56;39.23;92975.28;5013091;28;20061;-73
2022/07/08 02:04:36;;;;;;;3.42;1.80;;;;;;;17.54;39.24;92977.47;4997421;28;20041;-73
2022/07/08 02:07:02;;;;;;;3.60;1.80;;;;;;;17.53;39.68;92967.19;5031455;28;20384;-73
2022/07/08 02:09:28;;;;;;;3.25;1.50;;;;;;;17.49;39.67;92972.31;5013866;28;20491;-73
2022/07/08 02:14:37;;;;;;;4.03;1.60;;;;;;;17.41;40.33;92979.19;5012816;28;20042;-73
2022/07/08 02:17:03;;;;;;;5.05;1.67;;;;;;;17.38;40.62;92973.75;5031308;28;20112;-73
2022/07/08 02:19:30;;;;;;;4.22;1.73;;;;;;;17.33;40.54;92973.94;5012864;28;20061;-73
2022/07/08 02:21:55;;;;;;;4.13;1.70;;;;;;;17.30;40.65;92970.06;5013285;28;20068;-73
2022/07/08 02:24:21;;;;;;;5.45;1.75;;;;;;;17.26;41.12;92972.53;5030179;28;20037;-73
2022/07/08 02:26:47;;;;;;;6.95;1.95;;;;;;;17.22;41.51;92971.59;5031216;28;20098;-73
2022/07/08 02:29:12;;;;;;;2.92;1.60;;;;;;;17.18;41.61;92978.66;5031097;28;20045;-73
2022/07/08 02:31:38;;;;;;;3.83;1.73;;;;;;;17.13;41.61;92973.50;5013539;28;20038;-73
2022/07/08 02:34:03;;;;;;;4.03;1.80;;;;;;;17.11;41.59;92975.69;5030711;28;20396;-73
2022/07/08 02:36:29;;;;;;;5.88;1.65;;;;;;;17.10;41.39;92974.13;5013529;28;20484;-73
2022/07/08 02:38:55;;;;;;;2.60;1.45;;;;;;;17.09;41.44;92972.59;4997042;28;20045;-73
2022/07/08 02:41:21;;;;;;;3.88;1.63;;;;;;;17.06;41.60;92973.97;5013373;28;20037;-73
2022/07/08 02:43:46;;;;;;;4.40;1.70;;;;;;;17.04;41.86;92980.69;5030150;28;20037;-73
2022/07/08 02:46:12;;;;;;;3.63;1.70;;;;;;;17.01;41.60;92982.09;5013119;28;20112;-73
2022/07/08 02:48:37;;;;;;;4.05;1.60;;;;;;;16.98;41.76;92982.72;5011362;28;20472;-73
2022/07/08 02:51:03;;;;;;;3.17;1.60;;;;;;;16.95;42.00;92985.19;5030827;28;20046;-73
2022/07/08 02:53:29;;;;;;;4.05;1.80;;;;;;;16.92;42.14;92983.19;5013429;28;20142;-73
2022/07/08 02:55:54;;;;;;;7.07;1.92;;;;;;;16.90;42.08;92980.09;5030473;28;20471;-73
2022/07/08 02:58:20;;;;;;;6.13;1.70;;;;;;;16.89;42.28;92989.09;5030839;28;20120;-73
2022/07/08 03:00:46;;;;;;;4.78;1.65;;;;;;;16.87;42.34;92988.66;5030758;28;20380;-73
2022/07/08 03:03:11;;;;;;;3.38;1.70;;;;;;;16.84;42.55;92996.13;4996269;28;20041;-73
2022/07/08 03:05:37;;;;;;;3.47;1.63;;;;;;;16.82;42.64;92995.66;5012652;28;20033;-73
2022/07/08 03:08:03;;;;;;;3.38;1.50;;;;;;;16.81;42.25;92999.38;5030710;28;20061;-73
2022/07/08 03:10:28;;;;;;;7.53;1.73;;;;;;;16.81;42.13;92994.06;5031084;28;20042;-73
2022/07/08 03:12:54;;;;;;;7.55;1.80;;;;;;;16.81;42.01;92999.38;5013152;28;20040;-73
2022/07/08 03:15:19;;;;;;;3.97;1.70;;;;;;;16.81;42.22;92999.38;4996991;28;20140;-73
2022/07/08 03:17:45;;;;;;;5.05;1.60;;;;;;;16.82;41.84;93000.16;4997439;28;20048;-73
2022/07/08 03:20:11;;;;;;;3.30;1.60;;;;;;;16.84;41.80;93005.88;5007389;28;20423;-73
2022/07/08 03:22:37;;;;;;;5.65;1.80;;;;;;;16.85;41.34;93010.09;5009451;28;20455;-73
2022/07/08 03:25:03;;;;;;;2.50;1.50;;;;;;;16.85;41.32;93005.59;5025616;28;20048;-72
2022/07/08 03:27:28;;;;;;;5.63;1.60;;;;;;;16.89;41.47;93012.88;5031201;28;20475;-73
2022/07/08 03:29:54;;;;;;;3.05;1.67;;;;;;;16.90;41.65;93014.47;5031643;28;20041;-73
2022/07/08 03:32:19;;;;;;;4.18;1.77;;;;;;;16.89;41.49;93015.53;5012761;28;20073;-73
2022/07/08 03:34:45;;;;;;;2.92;1.65;;;;;;;16.98;40.78;93021.63;5030788;28;20116;-73
2022/07/08 03:37:10;;;;;;;3.70;1.70;;;;;;;16.96;40.92;93021.91;5030560;28;20495;-73
2022/07/08 03:39:36;;;;;;;2.95;1.70;;;;;;;16.96;40.92;93016.63;5012192;28;20072;-73
2022/07/08 03:42:02;;;;;;;4.53;1.60;;;;;;;16.96;41.13;93023.78;5045935;28;20029;-73
2022/07/08 03:44:29;;;;;;;3.65;1.50;;;;;;;16.96;41.12;93021.16;5015129;28;20048;-73
2022/07/08 03:46:55;;;;;;;6.13;1.70;;;;;;;16.96;41.04;93021.16;5015967;28;20041;-73
2022/07/08 03:49:20;;;;;;;3.67;1.58;;;;;;;16.95;41.26;93019.56;5050316;28;20033;-73
2022/07/08 03:51:46;;;;;;;3.70;1.55;;;;;;;16.96;41.18;93029.09;5032461;28;20040;-73
2022/07/08 03:54:11;;;;;;;3.22;1.70;;;;;;;16.96;41.32;93031.72;5019740;28;20064;-73
2022/07/08 03:56:37;;;;;;;5.47;1.98;;;;;;;16.94;41.54;93025.97;5013128;28;20025;-73
2022/07/08 03:59:02;;;;;;;3.58;1.73;;;;;;;16.95;41.30;93038.09;5047174;28;20500;-73
2022/07/08 04:01:28;;;;;;;3.55;1.88;;;;;;;16.94;41.28;93036.56;5048726;28;20029;-73
2022/07/08 04:03:54;;;;;;;3.90;1.60;;;;;;;16.95;41.38;93044.16;5050144;28;20087;-73
2022/07/08 04:06:19;;;;;;;3.85;1.98;;;;;;;16.97;41.23;93034.03;5032815;28;20056;-73
2022/07/08 04:08:45;;;;;;;2.88;1.40;;;;;;;16.98;40.83;93035.63;5035891;28;20047;-73
2022/07/08 04:11:11;;;;;;;4.93;1.50;;;;;;;16.99;41.15;93045.09;5035945;28;20033;-73
2022/07/08 04:13:38;;;;;;;6.20;1.70;;;;;;;16.97;41.99;93046.50;5053593;28;20037;-73
2022/07/08 04:16:05;;;;;;;3.33;1.65;;;;;;;16.95;41.74;93044.16;5023636;28;20542;-74
2022/07/08 04:18:50;;;;;;;4.90;1.70;;;;;;;16.99;41.67;93052.25;4999745;28;20051;-75
2022/07/08 04:21:15;;;;;;;4.28;1.70;;;;;;;16.98;41.62;93048.84;5030323;28;20033;-76
2022/07/08 04:23:41;;;;;;;3.03;1.67;;;;;;;17.01;41.88;93063.28;5028591;28;20037;-77
2022/07/08 04:26:07;;;;;;;4.88;1.50;;;;;;;17.00;42.20;93059.09;5026811;28;20062;-76
2022/07/08 04:28:34;;;;;;;3.15;1.60;;;;;;;17.00;42.02;93061.72;5036030;28;20376;-76
2022/07/08 04:31:00;;;;;;;4.32;1.63;;;;;;;17.04;41.61;93065.31;5040304;28;20047;-76
2022/07/08 04:33:25;;;;;;;4.85;1.55;;;;;;;17.07;41.53;93070.00;5030009;28;20050;-76
2022/07/08 04:35:51;;;;;;;3.38;1.60;;;;;;;17.12;41.75;93071.69;5030994;28;20156;-76
2022/07/08 04:38:17;;;;;;;3.10;1.50;;;;;;;17.18;41.53;93087.09;5018463;28;20480;-75
2022/07/08 04:40:42;;;;;;;3.10;1.40;;;;;;;17.20;41.08;93082.28;4976249;28;20484;-75
2022/07/08 04:43:09;;;;;;;2.92;1.45;;;;;;;17.30;41.57;93085.69;5007198;28;20446;-76
2022/07/08 04:45:34;;;;;;;3.92;1.50;;;;;;;17.39;40.54;93086.47;4990966;28;20052;-75
2022/07/08 04:48:00;;;;;;;5.22;1.60;;;;;;;17.41;40.29;93079.00;4996083;28;20038;-75
2022/07/08 04:50:26;;;;;;;2.97;1.63;;;;;;;17.42;40.29;93088.47;5013931;28;20042;-75
2022/07/08 04:52:52;;;;;;;5.07;1.60;;;;;;;17.56;39.73;93089.09;5013540;28;20033;-75
2022/07/08 04:55:30;;;;;;;2.35;1.45;;;;;;;17.56;40.52;93086.44;4996610;28;20404;-75
2022/07/08 04:57:58;;;;;;;2.78;1.30;;;;;;;17.61;40.39;93083.63;4996058;28;20066;-75
2022/07/08 05:00:24;;;;;;;3.08;1.52;;;;;;;17.62;39.81;93089.69;4996708;28;20442;-75
2022/07/08 05:02:50;;;;;;;2.60;1.50;;;;;;;17.62;39.65;93087.81;4996230;28;20038;-75
2022/07/08 05:05:17;;;;;;;6.38;1.52;;;;;;;17.99;38.27;93085.56;5013527;28;20045;-75
2022/07/08 05:07:43;;;;;;;2.47;1.40;;;;;;;17.91;39.51;93090.91;4996153;28;20034;-75
2022/07/08 05:10:08;;;;;;;3.90;1.60;;;;;;;17.87;39.55;93088.88;5013035;28;20509;-75
2022/07/08 05:12:34;;;;;;;3.42;1.48;;;;;;;17.90;39.61;93095.44;4995552;28;20435;-75
2022/07/08 05:14:59;;;;;;;2.17;1.15;;;;;;;17.91;39.90;93096.97;4995438;28;20037;-75
2022/07/08 05:17:25;;;;;;;2.60;1.40;;;;;;;17.99;39.30;93096.16;5013047;28;20559;-75
2022/07/08 05:19:51;;;;;;;2.55;1.45;;;;;;;18.00;40.35;93095.06;4995205;28;20064;-75
2022/07/08 05:22:16;;;;;;;3.33;1.55;;;;;;;18.05;39.78;93092.22;5012592;28;20087;-75
2022/07/08 05:24:42;;;;;;;2.50;1.58;;;;;;;18.07;39.56;93094.56;4979070;28;20211;-75
2022/07/08 05:27:07;;;;;;;4.78;1.50;;;;;;;18.13;39.37;93087.25;4994927;28;20065;-75
2022/07/08 05:29:33;;;;;;;4.18;1.60;;;;;;;18.15;39.41;93095.63;5012625;28;20372;-75
2022/07/08 05:31:58;;;;;;;3.75;1.40;;;;;;;18.20;40.13;93087.53;4994962;28;20044;-75
2022/07/08 05:34:24;;;;;;;2.67;1.45;;;;;;;18.23;40.15;93092.94;5031776;28;20046;-75
2022/07/08 05:36:50;;;;;;;3.75;1.50;;;;;;;18.57;39.17;93082.50;4998334;28;20033;-75
2022/07/08 05:39:16;;;;;;;6.38;1.50;;;;;;;18.61;39.23;93078.88;4998073;28;20287;-75
2022/07/08 05:41:41;;;;;;;3.95;1.45;;;;;;;18.60;39.43;93073.88;5032657;28;20034;-75
2022/07/08 05:44:07;;;;;;;5.90;1.58;;;;;;;18.61;40.46;93083.41;5014155;28;20040;-75
2022/07/08 05:46:34;;;;;;;6.03;1.30;;;;;;;18.74;40.08;93079.75;5031972;28;20515;-75
2022/07/08 05:48:59;;;;;;;3.33;1.38;;;;;;;19.09;39.21;93080.31;5032086;28;20045;-75
2022/07/08 05:51:25;;;;;;;5.40;1.50;;;;;;;19.59;39.80;93081.28;5014297;28;20123;-75
2022/07/08 05:53:52;;;;;;;3.00;1.40;;;;;;;20.21;37.46;93089.38;5032196;28;20104;-75
2022/07/08 05:56:18;;;;;;;2.28;1.30;;;;;;;21.34;35.63;93095.81;5031729;28;20051;-75
2022/07/08 05:58:43;;;;;;;2.28;1.25;;;;;;;21.87;34.63;93101.06;4997963;28;20120;-75
2022/07/08 06:01:09;;;;;;;3.33;1.40;;;;;;;22.39;33.33;93097.41;5031890;28;20045;-75
2022/07/08 06:03:34;;;;;;;2.90;1.50;;;;;;;22.97;29.28;93094.91;5016715;28;20113;-75
2022/07/08 06:06:00;;;;;;;1.77;1.13;;;;;;;23.25;31.03;93094.75;5014138;28;20476;-75
2022/07/08 06:08:26;;;;;;;6.82;1.70;;;;;;;23.79;31.85;93100.41;5031605;28;20045;-76
2022/07/08 06:10:51;;;;;;;4.35;1.80;;;;;;;23.67;29.99;93104.75;5014068;28;20041;-76
2022/07/08 06:13:17;;;;;;;2.95;1.30;;;;;;;24.08;29.01;93107.03;4997464;28;20571;-76
2022/07/08 06:15:42;;;;;;;2.88;1.40;;;;;;;24.03;28.81;93105.44;5031458;28;20090;-76
2022/07/08 06:18:08;;;;;;;2.47;1.40;;;;;;;23.80;29.68;93105.41;5031497;28;20037;-76
2022/07/08 06:20:34;;;;;;;2.45;1.13;;;;;;;23.51;28.53;93113.97;4997351;28;20061;-75
2022/07/08 06:22:59;;;;;;;2.25;1.30;;;;;;;23.69;28.95;93117.78;5031294;28;20136;-76
2022/07/08 06:25:25;;;;;;;4.90;1.40;;;;;;;23.28;28.83;93110.09;5031569;28;20041;-75
2022/07/08 06:27:50;;;;;;;4.07;1.40;;;;;;;22.97;29.11;93126.97;5013824;28;20048;-75
2022/07/08 06:30:16;;;;;;;3.42;1.52;;;;;;;23.29;28.91;93100.19;4996885;28;20049;-75
2022/07/08 06:32:41;;;;;;;3.20;1.33;;;;;;;22.83;29.95;93105.28;5031158;28;20070;-75
2022/07/08 06:35:08;;;;;;;2.85;1.30;;;;;;;22.65;31.01;93108.34;5013545;28;20034;-75
2022/07/08 06:37:33;;;;;;;3.50;1.40;;;;;;;22.46;30.75;93116.25;5013444;28;20033;-75
2022/07/08 06:39:59;;;;;;;2.80;1.33;;;;;;;22.58;31.44;93113.47;4997048;28;20041;-75
2022/07/08 06:42:25;;;;;;;4.10;1.30;;;;;;;22.48;30.69;93113.25;5031042;28;20085;-75
2022/07/08 06:44:54;;;;;;;4.63;1.30;;;;;;;22.12;30.49;93107.78;5029086;28;20042;-75
2022/07/08 06:47:22;;;;;;;5.70;1.45;;;;;;;22.05;30.83;93115.59;5013552;28;20126;-75
2022/07/08 06:49:49;;;;;;;2.65;1.30;;;;;;;21.89;31.40;93120.91;5013459;28;20099;-75
2022/07/08 06:52:15;;;;;;;3.08;1.20;;;;;;;21.87;31.27;93112.50;5013155;28;20037;-75
2022/07/08 06:54:40;;;;;;;4.40;1.50;;;;;;;21.61;32.29;93118.25;5030905;28;20043;-75
2022/07/08 06:57:07;;;;;;;2.13;1.10;;;;;;;21.55;31.47;93116.97;5013355;28;20092;-75
2022/07/08 06:59:34;;;;;;;2.17;1.23;;;;;;;21.68;32.38;93120.34;5030839;28;20029;-75
2022/07/08 07:02:00;;;;;;;2.20;1.38;;;;;;;21.44;32.09;93116.66;5030776;28;20037;-76
2022/07/08 07:04:27;;;;;;;1.75;1.08;;;;;;;21.22;33.09;93112.59;5030733;28;20473;-75
2022/07/08 07:06:52;;;;;;;3.22;1.38;;;;;;;21.55;33.14;93119.63;5030523;28;20124;-75
2022/07/08 07:09:18;;;;;;;2.95;1.20;;;;;;;21.66;31.43;93127.91;5013365;28;20405;-75
2022/07/08 07:11:44;;;;;;;3.05;1.60;;;;;;;21.52;33.13;93112.31;4996839;28;20128;-75
2022/07/08 07:14:09;;;;;;;2.55;1.35;;;;;;;21.52;33.80;93128.28;5030557;28;20048;-75
2022/07/08 07:16:35;;;;;;;3.33;1.38;;;;;;;21.52;31.54;93122.97;5030728;28;20039;-75
2022/07/08 07:19:00;;;;;;;3.92;1.30;;;;;;;21.64;32.95;93120.25;5031025;28;20125;-75
2022/07/08 07:21:26;;;;;;;2.28;1.33;;;;;;;21.69;32.43;93133.34;5012957;28;20056;-75
2022/07/08 07:23:51;;;;;;;1.95;1.15;;;;;;;21.50;31.59;93120.63;5030842;28;20063;-75
2022/07/08 07:26:17;;;;;;;2.88;1.40;;;;;;;21.69;34.52;93127.22;5030602;28;20046;-75
2022/07/08 07:28:42;;;;;;;2.20;1.30;;;;;;;21.77;33.13;93134.28;5012737;28;20033;-75
2022/07/08 07:31:08;;;;;;;3.75;1.33;;;;;;;21.64;32.87;93130.91;4980534;28;20026;-75
2022/07/08 07:33:34;;;;;;;3.10;1.10;;;;;;;21.69;32.18;93137.88;5012750;28;20050;-75
2022/07/08 07:35:59;;;;;;;3.35;1.20;;;;;;;21.88;31.63;93129.25;5031054;28;20038;-75
2022/07/08 07:38:25;;;;;;;2.50;1.30;;;;;;;22.07;32.04;93142.69;5030470;28;20069;-75
2022/07/08 07:40:51;;;;;;;3.05;1.38;;;;;;;21.92;30.58;93136.22;5030428;28;20062;-75
2022/07/08 07:43:16;;;;;;;6.32;1.30;;;;;;;21.98;31.07;93131.44;5016330;28;20041;-75
2022/07/08 07:45:42;;;;;;;3.85;1.30;;;;;;;22.01;31.06;93136.06;5034218;28;20043;-75
2022/07/08 07:48:08;;;;;;;2.65;1.38;;;;;;;22.05;31.21;93126.28;5034291;28;20030;-75
2022/07/08 07:50:34;;;;;;;2.38;1.20;;;;;;;21.96;30.24;93136.31;5016349;28;20399;-75
2022/07/08 07:52:59;;;;;;;2.50;1.20;;;;;;;22.18;30.56;93137.66;5016336;28;20040;-75
2022/07/08 07:55:25;;;;;;;2.17;1.30;;;;;;;22.24;31.27;93142.38;5034016;28;20043;-75
2022/07/08 07:57:51;;;;;;;2.40;1.10;;;;;;;22.31;30.34;93133.03;5016342;28;20427;-75
2022/07/08 08:00:17;;;;;;;2.22;1.25;;;;;;;22.42;32.29;93136.72;5034160;28;20040;-75
2022/07/08 08:02:43;;;;;;;2.38;1.27;;;;;;;22.55;29.53;93137.44;5033844;28;20513;-75
2022/07/08 08:05:10;;;;;;;2.97;1.30;;;;;;;22.68;30.21;93127.44;4999549;28;20041;-75
2022/07/08 08:07:40;;;;;;;2.10;1.13;;;;;;;22.62;30.24;93121.56;5016141;28;20399;-75
2022/07/08 08:10:07;;;;;;;2.65;1.10;;;;;;;22.54;28.83;93122.53;5033728;28;20087;-75
2022/07/08 08:12:33;;;;;;;1.95;1.23;;;;;;;22.65;29.97;93124.34;4999910;28;20076;-75
2022/07/08 08:14:59;;;;;;;2.85;1.20;;;;;;;22.60;29.76;93121.91;5033597;28;20049;-75
2022/07/08 08:17:24;;;;;;;2.60;1.13;;;;;;;22.97;29.56;93118.19;5016099;28;20025;-75
2022/07/08 08:19:50;;;;;;;2.65;1.23;;;;;;;22.80;29.46;93122.75;5033703;28;20034;-75
2022/07/08 08:22:16;;;;;;;3.58;1.40;;;;;;;22.73;30.68;93129.84;5015912;28;20034;-75
2022/07/08 08:24:42;;;;;;;2.35;1.20;;;;;;;22.72;30.09;93138.94;5033631;28;20099;-75
2022/07/08 08:27:09;;;;;;;2.22;1.20;;;;;;;22.87;29.96;93124.81;5015665;28;20045;-75
2022/07/08 08:29:34;;;;;;;2.15;1.20;;;;;;;23.11;30.54;93125.75;5033400;28;20033;-75
2022/07/08 08:32:00;;;;;;;3.92;1.40;;;;;;;23.01;30.01;93121.72;5034553;28;20026;-75
2022/07/08 08:34:26;;;;;;;4.07;1.33;;;;;;;23.00;29.35;93128.94;5033313;28;20499;-75
2022/07/08 08:36:52;;;;;;;1.65;1.02;;;;;;;22.80;28.18;93114.75;4999409;28;20038;-75
2022/07/08 08:39:17;;;;;;;3.33;1.40;;;;;;;22.98;29.63;93114.38;5033266;28;20376;-75
2022/07/08 08:41:43;;;;;;;3.08;1.20;;;;;;;23.37;29.12;93107.22;4999319;28;20107;-75
2022/07/08 08:44:09;;;;;;;2.13;1.20;;;;;;;23.38;28.50;93095.41;4997556;28;20052;-75
2022/07/08 08:46:36;;;;;;;2.20;1.38;;;;;;;23.49;30.77;93099.06;5014754;28;20025;-75
2022/07/08 08:49:02;;;;;;;4.22;1.50;;;;;;;23.45;29.10;93092.88;4999231;28;20457;-75
2022/07/08 08:51:32;;;;;;;2.45;1.15;;;;;;;23.77;30.45;93090.06;5015197;28;20033;-75
2022/07/08 08:53:58;;;;;;;2.80;1.25;;;;;;;23.89;28.26;93097.94;4998482;28;20037;-75
2022/07/08 08:56:25;;;;;;;2.67;1.30;;;;;;;24.26;30.13;93100.09;5032950;28;20033;-75
2022/07/08 08:58:53;;;;;;;2.85;1.50;;;;;;;24.60;28.72;93096.84;5015367;28;20375;-75
2022/07/08 09:01:19;;;;;;;2.55;1.38;;;;;;;24.47;28.23;93093.53;5015302;28;20047;-75
2022/07/08 09:03:45;;;;;;;2.00;1.20;;;;;;;24.71;28.10;93101.22;5032989;28;20108;-75
2022/07/08 09:06:11;;;;;;;3.85;1.15;;;;;;;25.09;31.19;93098.69;5032782;28;20037;-75
2022/07/08 09:08:37;;;;;;;3.47;1.20;;;;;;;25.25;28.84;93107.34;5015147;28;20554;-75
2022/07/08 09:11:03;;;;;;;4.03;1.35;;;;;;;25.43;27.63;93096.09;5032614;28;20030;-75
2022/07/08 09:13:29;;;;;;;1.73;1.13;;;;;;;25.41;26.23;93093.75;5015156;28;20068;-75
2022/07/08 09:15:58;;;;;;;2.60;1.17;;;;;;;25.14;27.12;93096.47;5014758;28;20045;-75
2022/07/08 09:18:28;;;;;;;3.17;1.30;;;;;;;24.66;24.80;93093.50;5032516;28;20480;-75
2022/07/08 09:20:55;;;;;;;2.38;1.20;;;;;;;24.41;26.30;93097.63;5032480;28;20080;-75
2022/07/08 09:23:29;;;;;;;3.80;1.40;;;;;;;24.52;26.92;93112.03;5032440;28;20030;-75
2022/07/08 09:25:59;;;;;;;1.65;1.10;;;;;;;25.02;26.12;93096.69;5014494;28;20037;-75
2022/07/08 09:28:29;;;;;;;3.00;1.38;;;;;;;25.12;28.50;93096.03;5032271;28;20045;-75
2022/07/08 09:30:56;;;;;;;2.20;1.30;;;;;;;25.03;27.04;93092.84;5032283;28;20080;-75
2022/07/08 09:33:23;;;;;;;2.95;1.23;;;;;;;24.97;25.72;93083.63;5014428;28;20088;-75
2022/07/08 09:35:50;;;;;;;1.92;1.02;;;;;;;24.85;25.16;93087.25;5032093;28;20042;-75
2022/07/08 09:38:18;;;;;;;1.70;1.10;;;;;;;25.09;27.71;93096.78;5032246;28;20057;-75
2022/07/08 09:41:02;;;;;;;1.65;1.02;;;;;;;25.49;28.07;93087.38;5031987;28;20137;-75
2022/07/08 09:43:28;;;;;;;3.55;1.13;;;;;;;25.07;25.08;93092.91;5014204;28;20047;-75
2022/07/08 09:45:54;;;;;;;4.07;1.30;;;;;;;25.18;27.84;93093.06;5031922;28;20550;-75
2022/07/08 09:48:23;;;;;;;2.13;1.20;;;;;;;25.56;26.70;93089.34;5014132;28;20038;-75
2022/07/08 09:50:49;;;;;;;2.55;1.10;;;;;;;25.18;23.89;93087.72;5014076;28;20025;-75
2022/07/08 09:53:16;;;;;;;1.67;0.95;;;;;;;25.11;25.83;93099.88;5031683;28;20088;-75
2022/07/08 09:55:47;;;;;;;1.75;1.08;;;;;;;25.20;26.00;93096.19;5031590;28;20037;-75
2022/07/08 09:58:14;;;;;;;2.08;1.20;;;;;;;24.81;25.42;93086.44;5014254;28;20037;-76
2022/07/08 10:00:41;;;;;;;2.38;1.05;;;;;;;24.81;25.17;93088.34;5013971;28;20045;-76
2022/07/08 10:03:07;;;;;;;2.45;1.35;;;;;;;24.96;24.78;93100.03;5013930;28;20091;-75
2022/07/08 10:05:33;;;;;;;2.55;1.25;;;;;;;24.96;25.43;93087.41;5013199;28;20116;-75
2022/07/08 10:07:59;;;;;;;3.20;1.15;;;;;;;25.22;26.53;93088.53;4997536;28;20041;-75
2022/07/08 10:10:26;;;;;;;1.85;1.20;;;;;;;25.27;24.65;93088.25;4997873;28;20391;-75
2022/07/08 10:12:58;;;;;;;2.47;1.30;;;;;;;25.03;25.38;93094.78;5014013;28;20400;-75
2022/07/08 10:15:25;;;;;;;2.10;1.20;;;;;;;25.23;24.50;93092.78;5031402;28;20502;-75
2022/07/08 10:17:51;;;;;;;2.13;1.10;;;;;;;25.10;25.67;93089.50;5031345;28;20032;-75
2022/07/08 10:20:19;;;;;;;2.88;1.20;;;;;;;25.19;24.62;93097.31;5031364;28;20045;-75
2022/07/08 10:22:49;;;;;;;1.77;1.15;;;;;;;25.42;26.06;93095.31;5031274;28;20036;-75
2022/07/08 10:25:17;;;;;;;2.25;1.17;;;;;;;25.62;26.12;93095.91;5031282;28;20160;-75
2022/07/08 10:27:43;;;;;;;5.35;1.30;;;;;;;25.89;27.92;93101.22;5013911;28;20448;-75
2022/07/08 10:30:13;;;;;;;3.15;1.55;;;;;;;26.07;25.48;93098.72;5031038;28;20118;-75
2022/07/08 10:32:39;;;;;;;1.60;1.10;;;;;;;25.90;25.53;93090.13;5031054;28;20057;-75
2022/07/08 10:35:10;;;;;;;3.03;1.40;;;;;;;25.70;25.22;93094.09;5031135;28;20060;-75
2022/07/08 10:37:49;;;;;;;7.68;1.30;;;;;;;25.53;25.29;93093.53;5013464;28;20614;-75
2022/07/08 10:40:50;;;;;;;3.22;1.33;;;;;;;25.70;24.82;93091.41;5031467;28;20045;-75
2022/07/08 10:43:18;;;;;;;2.55;1.27;;;;;;;25.31;23.64;93089.06;5030956;28;20037;-75
2022/07/08 10:46:18;;;;;;;1.98;1.20;;;;;;;25.46;26.85;93093.44;5028324;28;20032;-75
2022/07/08 10:49:12;;;;;;;4.10;1.40;;;;;;;26.01;24.83;93095.59;5031041;28;20030;-75
2022/07/08 10:51:45;;;;;;;1.50;1.10;;;;;;;26.26;25.01;93106.56;5028794;28;20132;-75
2022/07/08 10:54:24;;;;;;;1.63;1.02;;;;;;;26.46;23.36;93095.63;5030937;28;20034;-75
2022/07/08 10:56:54;;;;;;;2.97;1.10;;;;;;;26.26;25.07;93097.75;5031255;28;20395;-75
2022/07/08 10:59:32;;;;;;;4.07;1.30;;;;;;;26.24;25.06;93095.44;5031281;28;20395;-75
2022/07/08 11:02:07;;;;;;;2.63;1.20;;;;;;;26.22;25.02;93086.97;5030979;28;20045;-75
2022/07/08 11:04:36;;;;;;;1.50;1.00;;;;;;;26.38;24.47;93092.88;5013352;28;20064;-75
2022/07/08 11:07:37;;;;;;;3.63;1.20;;;;;;;26.57;25.73;93094.59;5031255;28;20022;-75
2022/07/08 11:10:12;;;;;;;3.25;1.33;;;;;;;26.90;24.68;93092.91;5030464;28;20053;-75
2022/07/08 11:12:40;;;;;;;2.53;1.20;;;;;;;26.98;23.76;93091.03;5030795;28;20407;-75
2022/07/08 11:15:10;;;;;;;4.57;1.48;;;;;;;26.75;23.92;93096.63;5030987;28;20029;-75
2022/07/08 11:17:38;;;;;;;1.95;1.25;;;;;;;26.44;24.17;93090.63;5017417;28;20442;-75
2022/07/08 11:20:14;;;;;;;2.28;1.30;;;;;;;26.11;24.18;93097.59;5017146;28;20043;-75
2022/07/08 11:22:42;;;;;;;2.08;1.20;;;;;;;26.14;23.88;93098.78;5017200;28;20193;-75
2022/07/08 11:25:13;;;;;;;1.85;1.20;;;;;;;26.24;25.68;93087.38;5035038;28;20056;-75
2022/07/08 11:27:40;;;;;;;3.08;1.48;;;;;;;26.63;24.79;93096.94;5035012;28;20056;-75
2022/07/08 11:30:10;;;;;;;4.35;1.50;;;;;;;26.82;24.18;93087.84;5034880;28;20120;-75
2022/07/08 11:32:37;;;;;;;2.78;1.35;;;;;;;26.62;23.86;93081.97;5034361;28;20072;-75
2022/07/08 11:35:03;;;;;;;2.67;1.50;;;;;;;26.51;25.21;93079.94;5016706;28;20037;-75
2022/07/08 11:37:32;;;;;;;1.83;1.20;;;;;;;26.21;23.89;93080.09;5025008;28;20056;-77